Time;durP1;ratioP1;P1;durP2;ratioP2;P2;SDS_P1;SDS_P2;PMS_P1;PMS_P2;Temp;Humidity;BMP_temperature;BMP_pressure;BME280_temperature;BME280_humidity;BME280_pressure;Samples;Min_cycle;Max_cycle;Signal;HPM_P1;HPM_P2
2020/12/18 00:00:49;;;;;;;67.75;29.42;;;;;;;3.42;81.74;101133.21;126353;1098;23379;-54
2020/12/18 00:03:39;;;;;;;63.98;29.27;;;;;;;3.46;81.61;101139.48;126180;1098;23432;-56
2020/12/18 00:06:10;;;;;;;65.80;29.67;;;;;;;3.48;81.44;101137.09;126255;1098;23328;-54
2020/12/18 00:08:41;;;;;;;63.23;28.13;;;;;;;3.49;81.75;101136.70;126325;1093;23457;-54
2020/12/18 00:11:09;;;;;;;;;;;;;;;3.51;81.62;101134.32;126583;1098;23477;-54
2020/12/18 00:13:38;;;;;;;69.60;29.60;;;;;;;3.51;81.76;101137.08;126172;1098;21566;-55
2020/12/18 00:16:08;;;;;;;65.23;28.63;;;;;;;3.53;81.68;101137.45;126398;1098;26754;-56
2020/12/18 00:18:38;;;;;;;66.37;27.90;;;;;;;3.53;81.51;101139.42;126254;1098;23491;-56
2020/12/18 00:21:07;;;;;;;65.15;27.50;;;;;;;3.57;81.64;101134.65;126273;1098;29189;-52
2020/12/18 00:23:37;;;;;;;67.43;28.20;;;;;;;3.58;81.89;101136.99;126196;1098;27105;-56
2020/12/18 00:26:06;;;;;;;66.27;29.00;;;;;;;3.59;81.83;101140.55;126356;1098;23328;-53
2020/12/18 00:28:35;;;;;;;66.10;29.10;;;;;;;3.62;81.92;101140.50;126182;1098;24818;-58
2020/12/18 00:31:05;;;;;;;66.83;30.47;;;;;;;3.65;81.69;101139.69;126411;1098;23328;-57
2020/12/18 00:33:36;;;;;;;72.23;29.03;;;;;;;3.67;81.80;101144.80;126387;1098;25053;-56
2020/12/18 00:36:09;;;;;;;;;;;;;;;3.68;81.62;101144.41;126198;1098;28263;-57
2020/12/18 00:38:39;;;;;;;75.80;29.35;;;;;;;3.71;81.83;101146.33;126171;1098;24482;-53
2020/12/18 00:41:08;;;;;;;69.35;30.48;;;;;;;3.78;81.95;101146.27;126320;1098;25436;-56
2020/12/18 00:43:39;;;;;;;65.87;29.80;;;;;;;3.81;81.50;101147.41;129017;1098;23895;-54
2020/12/18 00:46:09;;;;;;;70.07;29.90;;;;;;;3.81;81.82;101148.19;126179;1099;23376;-57
2020/12/18 00:48:38;;;;;;;69.20;29.90;;;;;;;3.81;81.29;101159.24;126426;1098;23321;-57
2020/12/18 00:51:08;;;;;;;67.07;27.80;;;;;;;3.83;81.68;101156.06;126212;1098;23627;-56
2020/12/18 00:53:37;;;;;;;63.23;28.33;;;;;;;3.86;81.75;101160.77;126239;1098;23320;-55
2020/12/18 00:56:10;;;;;;;65.45;28.85;;;;;;;3.87;81.73;101156.84;126298;1098;23435;-54
2020/12/18 00:58:48;;;;;;;64.67;27.63;;;;;;;3.90;81.88;101162.31;126251;1098;23379;-59
2020/12/18 01:01:17;;;;;;;65.67;30.63;;;;;;;3.94;81.77;101165.81;126284;1098;23340;-53
2020/12/18 01:03:47;;;;;;;67.30;31.15;;;;;;;3.96;81.55;101162.63;126279;1099;23443;-54
2020/12/18 01:06:18;;;;;;;69.43;28.90;;;;;;;3.97;81.92;101162.22;126148;1098;23491;-56
2020/12/18 01:08:47;;;;;;;63.53;29.50;;;;;;;4.03;81.71;101165.33;127129;1098;23395;-54
2020/12/18 01:11:17;;;;;;;66.40;29.93;;;;;;;4.01;81.57;101160.20;126271;1093;23328;-52
2020/12/18 01:13:47;;;;;;;67.87;27.53;;;;;;;4.02;81.59;101166.51;126400;1093;23382;-54
2020/12/18 01:16:16;;;;;;;66.35;26.57;;;;;;;4.02;81.45;101169.27;126249;1098;23374;-52
2020/12/18 01:18:46;;;;;;;63.78;27.00;;;;;;;4.02;81.93;101169.27;126338;1098;23384;-55
2020/12/18 01:21:15;;;;;;;59.07;25.13;;;;;;;4.03;81.69;101171.62;126252;1093;25113;-53
2020/12/18 01:23:44;;;;;;;54.40;26.47;;;;;;;4.05;81.93;101173.98;126241;1098;23331;-55
2020/12/18 01:26:13;;;;;;;;;;;;;;;4.05;81.72;101171.22;126414;1098;26373;-52
2020/12/18 01:28:43;;;;;;;60.93;28.57;;;;;;;4.05;81.83;101176.75;126246;1098;21568;-52
2020/12/18 01:31:12;;;;;;;60.57;28.27;;;;;;;4.07;81.93;101180.67;126493;1098;23379;-55
2020/12/18 01:33:46;;;;;;;65.97;27.73;;;;;;;4.09;81.92;101172.76;126248;1098;23509;-52
2020/12/18 01:36:15;;;;;;;62.67;26.67;;;;;;;4.10;81.60;101179.84;126387;1098;23343;-56
2020/12/18 01:38:47;;;;;;;65.27;27.30;;;;;;;4.11;81.91;101177.86;126563;1098;23377;-54
2020/12/18 01:41:16;;;;;;;54.43;24.87;;;;;;;4.12;81.69;101178.66;126287;1098;23438;-54
2020/12/18 01:43:46;;;;;;;57.93;25.57;;;;;;;4.14;81.70;101181.78;126373;1098;23394;-55
2020/12/18 01:46:19;;;;;;;65.95;24.55;;;;;;;4.17;81.97;101184.50;126318;1098;23343;-53
2020/12/18 01:48:49;;;;;;;61.47;26.07;;;;;;;4.18;81.84;101182.53;126333;1098;23328;-58
2020/12/18 01:51:18;;;;;;;58.90;25.57;;;;;;;4.20;81.58;101185.66;126315;1098;23339;-54
2020/12/18 01:53:49;;;;;;;59.37;26.53;;;;;;;4.19;81.67;101186.84;126341;1098;27130;-56
2020/12/18 01:56:21;;;;;;;57.00;25.13;;;;;;;4.20;82.04;101185.66;126263;1093;28431;-54
2020/12/18 01:58:53;;;;;;;52.73;24.37;;;;;;;4.22;81.85;101195.09;126427;1098;23328;-53
2020/12/18 02:01:25;;;;;;;58.25;24.15;;;;;;;4.23;81.81;101193.11;126284;1098;23329;-55
2020/12/18 02:03:55;;;;;;;52.53;22.87;;;;;;;4.24;81.98;101197.45;126383;1098;23326;-55
2020/12/18 02:06:30;;;;;;;60.10;23.98;;;;;;;4.28;81.51;101193.46;126332;1098;27893;-57
2020/12/18 02:09:06;;;;;;;52.90;23.85;;;;;;;4.31;81.77;101198.15;126253;1098;23328;-52
2020/12/18 02:11:37;;;;;;;56.97;25.00;;;;;;;4.35;81.80;101198.09;126439;1098;28294;-53
2020/12/18 02:14:12;;;;;;;57.50;24.73;;;;;;;4.34;81.94;101204.84;126427;1099;27922;-56
2020/12/18 02:16:42;;;;;;;53.60;22.77;;;;;;;4.33;81.78;101206.02;126254;1098;23491;-56
2020/12/18 02:19:19;;;;;;;52.43;22.57;;;;;;;4.31;81.79;101203.67;126904;1092;24189;-54
2020/12/18 02:21:48;;;;;;;53.20;22.60;;;;;;;4.31;81.82;101200.12;126494;1098;23445;-59
2020/12/18 02:24:25;;;;;;;46.07;20.93;;;;;;;4.30;81.93;101195.80;126518;1098;23789;-58
2020/12/18 02:26:54;;;;;;;51.53;22.53;;;;;;;4.32;81.93;101207.23;126460;1098;26789;-55
2020/12/18 02:29:25;;;;;;;54.40;22.62;;;;;;;4.33;81.83;101211.55;126457;1098;23327;-57
2020/12/18 02:31:54;;;;;;;51.65;21.80;;;;;;;4.34;81.91;101205.63;126479;1098;23632;-57
2020/12/18 02:34:27;;;;;;;47.17;20.70;;;;;;;4.34;81.94;101213.13;126429;1098;23390;-58
2020/12/18 02:36:56;;;;;;;46.10;20.90;;;;;;;4.35;81.81;101203.63;126489;1099;23862;-58
2020/12/18 02:39:25;;;;;;;51.50;21.80;;;;;;;4.36;81.52;101210.73;126588;1099;26952;-54
2020/12/18 02:41:55;;;;;;;50.17;20.37;;;;;;;4.37;81.63;101206.76;126500;1098;23335;-56
2020/12/18 02:44:24;;;;;;;47.05;19.02;;;;;;;4.37;81.81;101209.52;126555;1099;23327;-59
2020/12/18 02:46:54;;;;;;;48.20;19.50;;;;;;;4.38;81.67;101208.34;126498;1099;23388;-56
2020/12/18 02:49:26;;;;;;;48.43;21.80;;;;;;;4.39;81.62;101209.89;126623;1098;23357;-56
2020/12/18 02:51:55;;;;;;;49.50;23.30;;;;;;;4.39;81.70;101215.42;126383;1099;26811;-54
2020/12/18 02:54:24;;;;;;;49.13;21.03;;;;;;;4.37;81.40;101210.31;126461;1098;25188;-57
2020/12/18 02:56:54;;;;;;;45.30;21.47;;;;;;;4.37;81.64;101215.05;126552;1098;23322;-56
2020/12/18 02:59:23;;;;;;;52.73;22.33;;;;;;;4.35;81.37;101220.21;126579;1099;23953;-55
2020/12/18 03:01:54;;;;;;;48.13;19.70;;;;;;;4.33;81.63;101219.84;126672;1098;23382;-54
2020/12/18 03:04:23;;;;;;;45.93;19.40;;;;;;;4.29;81.67;101208.84;126724;1098;23424;-55
2020/12/18 03:06:52;;;;;;;44.45;18.75;;;;;;;4.28;81.45;101217.55;126419;1098;23376;-56
2020/12/18 03:09:22;;;;;;;45.27;19.07;;;;;;;4.29;81.63;101213.57;126647;1098;23431;-56
2020/12/18 03:11:51;;;;;;;41.08;19.73;;;;;;;4.28;81.69;101221.10;126686;1098;23431;-57
2020/12/18 03:14:20;;;;;;;44.77;19.27;;;;;;;4.30;81.52;101215.16;126812;1098;23467;-57
2020/12/18 03:16:49;;;;;;;41.53;19.70;;;;;;;4.27;81.72;101216.76;126536;1098;23544;-56
2020/12/18 03:19:19;;;;;;;44.03;19.23;;;;;;;4.26;81.11;101214.41;126482;1098;23541;-58
2020/12/18 03:21:48;;;;;;;44.47;18.83;;;;;;;4.25;81.47;101216.39;126471;1098;23379;-59
2020/12/18 03:24:17;;;;;;;38.73;16.20;;;;;;;4.23;81.56;101221.55;126493;1099;23370;-58
2020/12/18 03:26:47;;;;;;;41.90;16.83;;;;;;;4.20;81.56;101216.83;126456;1094;23379;-57
2020/12/18 03:29:17;;;;;;;38.58;17.12;;;;;;;4.19;81.43;101220.01;126478;1098;23348;-56
2020/12/18 03:31:46;;;;;;;37.38;15.63;;;;;;;4.17;81.51;101219.64;126527;1098;23401;-59
2020/12/18 03:34:17;;;;;;;38.97;17.47;;;;;;;4.17;81.60;101219.64;126383;1098;23385;-56
2020/12/18 03:36:47;;;;;;;42.47;16.40;;;;;;;4.18;81.48;101227.51;126564;1098;23432;-56
2020/12/18 03:39:16;;;;;;;40.88;16.73;;;;;;;4.17;81.61;101225.16;126430;1098;23350;-59
2020/12/18 03:41:45;;;;;;;37.40;15.87;;;;;;;4.15;81.49;101222.03;126346;1098;23345;-57
2020/12/18 03:44:15;;;;;;;38.85;16.10;;;;;;;4.14;81.62;101229.53;126349;1098;24796;-58
2020/12/18 03:46:44;;;;;;;34.13;14.23;;;;;;;4.15;81.39;101222.03;126493;1098;23406;-56
2020/12/18 03:49:14;;;;;;;37.53;15.20;;;;;;;4.15;81.58;101230.31;126449;1098;23528;-55
2020/12/18 03:51:43;;;;;;;33.92;14.73;;;;;;;4.15;81.51;101233.08;126504;1098;23329;-57
2020/12/18 03:54:13;;;;;;;34.40;14.10;;;;;;;4.13;81.42;101229.95;126356;1098;23567;-56
2020/12/18 03:56:42;;;;;;;33.65;14.50;;;;;;;4.10;81.53;101229.58;126457;1098;23304;-53
2020/12/18 03:59:11;;;;;;;31.93;13.40;;;;;;;4.12;81.66;101229.16;126455;1098;23335;-58
2020/12/18 04:01:40;;;;;;;29.67;12.40;;;;;;;4.12;81.68;101231.16;126524;1098;23328;-58
2020/12/18 04:04:09;;;;;;;32.50;12.87;;;;;;;4.11;81.79;101222.08;126324;1098;23331;-56
2020/12/18 04:06:38;;;;;;;33.60;13.60;;;;;;;4.10;81.54;101226.81;126314;1098;23406;-61
2020/12/18 04:09:08;;;;;;;31.73;12.80;;;;;;;4.11;81.45;101230.37;126306;1098;26334;-54
2020/12/18 04:11:38;;;;;;;29.30;11.53;;;;;;;4.09;81.53;101224.47;126596;1099;23484;-57
2020/12/18 04:14:11;;;;;;;31.20;12.47;;;;;;;4.08;81.71;101222.88;126358;1098;27846;-55
2020/12/18 04:16:44;;;;;;;31.40;12.00;;;;;;;4.09;81.61;101230.00;126292;1098;26293;-58
2020/12/18 04:19:14;;;;;;;30.27;12.80;;;;;;;4.07;82.02;101230.41;126340;1098;25031;-55
2020/12/18 04:21:44;;;;;;;29.70;10.93;;;;;;;4.07;81.42;101235.94;126468;1099;23439;-56
2020/12/18 04:24:13;;;;;;;31.70;12.20;;;;;;;4.08;81.38;101233.94;126453;1099;28116;-56
2020/12/18 04:26:44;;;;;;;29.23;10.60;;;;;;;4.05;81.52;101237.54;126295;1098;23325;-56
2020/12/18 04:29:13;;;;;;;32.35;13.75;;;;;;;4.06;81.39;101244.62;126380;1098;27768;-57
2020/12/18 04:31:43;;;;;;;28.20;11.37;;;;;;;4.05;81.28;101243.06;126334;1098;23432;-54
2020/12/18 04:34:13;;;;;;;28.80;11.83;;;;;;;4.03;81.23;101250.98;126512;1098;27099;-55
2020/12/18 04:36:43;;;;;;;31.10;12.65;;;;;;;4.03;81.37;101245.45;126522;1098;23403;-55
2020/12/18 04:39:12;;;;;;;30.70;11.20;;;;;;;4.00;81.26;101247.05;126410;1098;23395;-55
2020/12/18 04:41:42;;;;;;;;;;;;;;;3.99;81.37;101248.23;126391;1098;23593;-57
2020/12/18 04:44:11;;;;;;;28.97;10.93;;;;;;;3.96;81.19;101254.59;126341;1093;21679;-53
2020/12/18 04:46:44;;;;;;;28.30;10.57;;;;;;;3.96;81.09;101257.36;126307;1098;23417;-59
2020/12/18 04:49:14;;;;;;;25.93;9.97;;;;;;;3.93;81.16;101258.16;126237;1098;23379;-55
2020/12/18 04:51:45;;;;;;;25.43;10.30;;;;;;;3.91;81.33;101257.03;126314;1098;23391;-58
2020/12/18 04:54:20;;;;;;;30.97;11.78;;;;;;;3.88;81.24;101261.39;126335;1098;29618;-59
2020/12/18 04:56:54;;;;;;;29.93;11.20;;;;;;;3.81;81.07;101255.13;126378;1098;23325;-59
2020/12/18 04:59:27;;;;;;;29.50;11.73;;;;;;;3.73;81.10;101257.17;126555;1098;23283;-55
2020/12/18 05:01:57;;;;;;;29.10;9.83;;;;;;;3.70;81.20;101260.77;126386;1099;23333;-56
2020/12/18 05:04:27;;;;;;;26.83;9.37;;;;;;;3.66;81.20;101262.74;126456;1098;23376;-57
2020/12/18 05:06:57;;;;;;;22.97;8.07;;;;;;;3.61;81.26;101265.95;126392;1098;23399;-59
2020/12/18 05:09:26;;;;;;;27.90;9.67;;;;;;;3.58;81.13;101271.52;126266;1098;23394;-57
2020/12/18 05:12:05;;;;;;;27.90;10.53;;;;;;;3.57;81.20;101261.66;126375;1098;23388;-59
2020/12/18 05:14:36;;;;;;;27.57;10.53;;;;;;;3.57;81.51;101267.17;126368;1099;27562;-56
2020/12/18 05:17:09;;;;;;;28.20;9.80;;;;;;;3.58;81.33;101264.00;126444;1099;23322;-56
2020/12/18 05:19:40;;;;;;;30.43;10.43;;;;;;;3.58;81.51;101269.52;126460;1098;26360;-56
2020/12/18 05:22:14;;;;;;;26.57;9.30;;;;;;;3.61;81.30;101270.69;126348;1098;23304;-58
2020/12/18 05:24:43;;;;;;;29.10;10.07;;;;;;;3.62;81.34;101269.52;126363;1098;23321;-53
2020/12/18 05:27:13;;;;;;;29.60;10.73;;;;;;;3.62;81.23;101272.27;126333;1098;25096;-58
2020/12/18 05:29:43;;;;;;;26.13;9.27;;;;;;;3.64;81.30;101280.94;126386;1098;23461;-55
2020/12/18 05:32:15;;;;;;;30.30;10.90;;;;;;;3.63;81.36;101268.30;126340;1098;23393;-64
2020/12/18 05:34:46;;;;;;;27.07;10.50;;;;;;;3.63;81.20;101266.34;126224;1093;23379;-58
2020/12/18 05:37:16;;;;;;;27.70;10.35;;;;;;;3.60;81.05;101277.42;126286;1098;23393;-54
2020/12/18 05:39:45;;;;;;;29.57;10.00;;;;;;;3.58;81.30;101280.56;126368;1099;23419;-56
2020/12/18 05:42:21;;;;;;;29.63;10.60;;;;;;;3.55;81.08;101275.88;126236;1098;24828;-53
2020/12/18 05:44:52;;;;;;;25.00;8.57;;;;;;;3.54;80.86;101273.52;126231;1098;23400;-53
2020/12/18 05:47:22;;;;;;;27.20;10.70;;;;;;;3.52;80.85;101278.67;126303;1098;23636;-55
2020/12/18 05:49:52;;;;;;;26.30;9.97;;;;;;;3.50;80.95;101281.81;126323;1098;23346;-57
2020/12/18 05:52:21;;;;;;;;;;;;;;;3.51;81.04;101280.64;126211;1098;23398;-55
2020/12/18 05:54:54;;;;;;;26.93;9.60;;;;;;;3.51;80.97;101285.36;126306;1098;24442;-59
2020/12/18 05:57:23;;;;;;;34.03;12.57;;;;;;;3.50;80.89;101294.85;126215;1098;26363;-56
2020/12/18 05:59:54;;;;;;;34.58;12.65;;;;;;;3.49;80.68;101290.51;126276;1098;23426;-54
2020/12/18 06:02:28;;;;;;;36.10;13.18;;;;;;;3.43;80.48;101298.44;126292;1098;23395;-55
2020/12/18 06:05:02;;;;;;;38.33;15.33;;;;;;;3.41;80.46;101295.30;126269;1098;25088;-59
2020/12/18 06:07:37;;;;;;;43.60;18.20;;;;;;;3.39;80.64;101297.69;126216;1099;23378;-59
2020/12/18 06:10:09;;;;;;;42.30;20.53;;;;;;;3.36;80.31;101295.72;126189;1098;27853;-58
2020/12/18 06:12:38;;;;;;;42.70;20.20;;;;;;;3.36;80.38;101301.24;126107;1099;26830;-60
2020/12/18 06:15:09;;;;;;;57.00;24.83;;;;;;;3.33;80.22;101304.03;126333;1098;27158;-57
2020/12/18 06:17:43;;;;;;;56.13;25.65;;;;;;;3.27;80.16;101303.66;126475;1098;23332;-56
2020/12/18 06:20:15;;;;;;;53.97;23.97;;;;;;;3.22;80.13;101307.65;126448;1098;23300;-58
2020/12/18 06:22:59;;;;;;;60.50;26.00;;;;;;;3.16;80.10;101312.02;126055;1098;23517;-61
2020/12/18 06:25:29;;;;;;;61.47;22.63;;;;;;;3.12;80.11;101315.98;126458;1098;23406;-55
2020/12/18 06:28:02;;;;;;;59.70;23.35;;;;;;;3.10;80.43;101318.36;126399;1098;26484;-58
2020/12/18 06:30:32;;;;;;;58.67;23.37;;;;;;;3.08;80.24;101317.98;126310;1098;23452;-57
2020/12/18 06:33:02;;;;;;;54.67;25.00;;;;;;;3.07;80.01;101328.22;127370;1098;23340;-56
2020/12/18 06:35:34;;;;;;;85.53;35.03;;;;;;;3.04;80.18;101328.24;126509;1098;23331;-59
2020/12/18 06:38:26;;;;;;;88.67;36.87;;;;;;;3.02;79.98;101330.62;126622;1098;23536;-58
2020/12/18 06:40:56;;;;;;;129.30;46.60;;;;;;;2.98;79.95;101329.85;126655;1098;23327;-58
2020/12/18 06:43:36;;;;;;;179.37;60.50;;;;;;;2.92;79.62;101329.46;126333;1098;26193;-57
2020/12/18 06:46:07;;;;;;;159.90;58.70;;;;;;;2.85;79.56;101325.95;126764;1098;23396;-58
2020/12/18 06:48:36;;;;;;;154.83;48.93;;;;;;;2.81;79.80;101331.50;126596;1093;23329;-54
2020/12/18 06:51:31;;;;;;;132.30;45.12;;;;;;;2.77;79.62;101340.97;126583;1098;23651;-57
2020/12/18 06:54:11;;;;;;;133.90;46.43;;;;;;;2.69;79.72;101333.91;126236;1093;24013;-58
2020/12/18 06:56:40;;;;;;;132.30;46.90;;;;;;;2.64;79.46;101343.37;126388;1098;23328;-59
2020/12/18 06:59:22;;;;;;;173.50;58.95;;;;;;;2.61;79.22;101346.91;126146;1090;27632;-61
2020/12/18 07:01:52;;;;;;;197.43;66.93;;;;;;;2.59;79.79;101346.52;126570;1098;23391;-59
2020/12/18 07:04:23;;;;;;;197.73;68.67;;;;;;;2.56;79.99;101352.05;126245;1098;26817;-57
2020/12/18 07:06:53;;;;;;;160.52;53.87;;;;;;;2.50;79.50;101351.68;126281;1098;23339;-58
2020/12/18 07:09:28;;;;;;;143.13;49.75;;;;;;;2.46;79.52;101350.91;126720;1099;23428;-56
2020/12/18 07:12:15;;;;;;;106.90;41.73;;;;;;;2.41;79.33;101349.33;126524;1098;23398;-59
2020/12/18 07:14:54;;;;;;;102.70;41.80;;;;;;;2.32;79.50;101350.91;126985;1098;23515;-56
2020/12/18 07:17:27;;;;;;;96.17;40.80;;;;;;;2.27;79.34;101345.81;126178;1098;23363;-59
2020/12/18 07:19:58;;;;;;;98.00;39.90;;;;;;;2.22;79.69;101365.48;126300;1098;23482;-58
2020/12/18 07:22:30;;;;;;;87.85;37.40;;;;;;;2.20;79.41;101357.62;126364;1098;24961;-58
2020/12/18 07:24:59;;;;;;;94.93;38.47;;;;;;;2.17;78.98;101354.88;126526;1098;23360;-57
2020/12/18 07:27:31;;;;;;;81.95;32.80;;;;;;;2.13;79.52;101363.13;126682;1098;23375;-60
2020/12/18 07:30:11;;;;;;;76.77;32.03;;;;;;;2.11;79.69;101359.98;127348;1098;27868;-60
2020/12/18 07:32:40;;;;;;;74.00;31.87;;;;;;;2.10;78.95;101366.69;126371;1098;23393;-58
2020/12/18 07:35:12;;;;;;;76.93;33.20;;;;;;;2.09;79.07;101367.84;126447;1098;29435;-60
2020/12/18 07:37:42;;;;;;;75.17;33.15;;;;;;;2.10;79.83;101372.20;128072;1098;23343;-58
2020/12/18 07:40:12;;;;;;;75.35;33.02;;;;;;;2.13;80.22;101378.89;126262;1098;23333;-59
2020/12/18 07:42:43;;;;;;;68.53;31.77;;;;;;;2.12;79.71;101375.34;126642;1098;27970;-59
2020/12/18 07:45:12;;;;;;;81.57;34.73;;;;;;;2.12;80.14;101374.55;126531;1098;23343;-58
2020/12/18 07:47:43;;;;;;;77.03;30.43;;;;;;;2.10;79.99;101369.44;126410;1098;23399;-56
2020/12/18 07:50:12;;;;;;;72.55;29.80;;;;;;;2.10;79.54;101377.70;126542;1098;23430;-59
2020/12/18 07:52:43;;;;;;;78.17;33.47;;;;;;;2.12;79.96;101383.61;126342;1098;25030;-55
2020/12/18 07:55:13;;;;;;;88.63;36.53;;;;;;;2.13;79.43;101376.90;126297;1098;23339;-59
2020/12/18 07:57:42;;;;;;;91.13;37.13;;;;;;;2.16;79.80;101386.35;126887;1098;23530;-58
2020/12/18 08:00:12;;;;;;;87.33;36.43;;;;;;;2.17;79.82;101376.92;126971;1098;23532;-59
2020/12/18 08:02:43;;;;;;;85.97;36.27;;;;;;;2.18;80.02;101379.27;126496;1098;26805;-59
2020/12/18 08:05:13;;;;;;;79.80;31.87;;;;;;;2.15;80.13;101380.05;126490;1098;23402;-57
2020/12/18 08:07:44;;;;;;;77.33;31.87;;;;;;;2.13;80.09;101378.89;126377;1098;23328;-59
2020/12/18 08:10:16;;;;;;;75.97;30.83;;;;;;;2.12;80.01;101385.56;130282;1098;23290;-61
2020/12/18 08:12:51;;;;;;;73.13;30.17;;;;;;;2.14;80.04;101381.24;130293;1098;23244;-60
2020/12/18 08:15:22;;;;;;;60.70;27.60;;;;;;;2.17;80.02;101385.95;126824;1098;26276;-57
2020/12/18 08:17:52;;;;;;;53.80;24.90;;;;;;;2.16;79.96;101391.86;126550;1093;25096;-55
2020/12/18 08:20:26;;;;;;;51.60;22.90;;;;;;;2.18;80.19;101395.00;126907;1098;23908;-55
2020/12/18 08:22:56;;;;;;;54.00;24.83;;;;;;;2.16;79.92;101397.37;126205;1098;23344;-56
2020/12/18 08:25:26;;;;;;;52.25;23.62;;;;;;;2.14;80.19;101402.48;126413;1098;23400;-58
2020/12/18 08:27:58;;;;;;;47.88;20.17;;;;;;;2.14;80.54;101396.98;126354;1098;27192;-57
2020/12/18 08:30:31;;;;;;;47.73;19.40;;;;;;;2.13;80.85;101398.17;126508;1098;23696;-58
2020/12/18 08:33:01;;;;;;;49.35;20.60;;;;;;;2.16;80.58;101403.67;126616;1098;24051;-57
2020/12/18 08:35:32;;;;;;;45.88;18.90;;;;;;;2.16;80.71;101403.67;126239;1098;23462;-59
2020/12/18 08:38:10;;;;;;;46.00;19.27;;;;;;;2.19;80.75;101399.34;126362;1098;27876;-57
2020/12/18 08:40:43;;;;;;;39.90;16.47;;;;;;;2.20;80.70;101404.45;126410;1098;23440;-58
2020/12/18 08:43:13;;;;;;;44.13;17.83;;;;;;;2.21;80.92;101392.27;126408;1098;23327;-57
2020/12/18 08:45:45;;;;;;;;;;;;;;;2.25;81.03;101406.83;126272;1098;23343;-57
2020/12/18 08:48:20;;;;;;;37.00;15.45;;;;;;;2.22;80.60;101407.61;126477;1098;21499;-59
2020/12/18 08:51:00;;;;;;;37.87;14.50;;;;;;;2.23;81.34;101405.64;126465;1098;23486;-58
2020/12/18 08:53:35;;;;;;;;;;;;;;;2.25;81.01;101412.34;126270;1098;23372;-59
2020/12/18 08:56:07;;;;;;;33.17;14.17;;;;;;;2.27;80.96;101407.22;126348;1098;21761;-56
2020/12/18 08:58:38;;;;;;;34.80;13.67;;;;;;;2.30;81.34;101420.20;126429;1098;23356;-54
2020/12/18 09:01:24;;;;;;;39.70;15.05;;;;;;;2.37;81.17;101416.66;126181;1099;23492;-58
2020/12/18 09:03:54;;;;;;;35.97;14.00;;;;;;;2.41;81.56;101414.68;126379;1098;23349;-59
2020/12/18 09:06:24;;;;;;;;;;;;;;;2.43;81.59;101418.62;126550;1098;23482;-55
2020/12/18 09:09:06;;;;;;;39.47;14.67;;;;;;;2.47;81.41;101415.84;126741;1098;24355;-58
2020/12/18 09:11:36;;;;;;;36.87;14.13;;;;;;;2.50;81.58;101419.80;126471;1098;23322;-57
2020/12/18 09:14:25;;;;;;;37.60;14.53;;;;;;;2.53;81.62;101419.78;126196;1098;23385;-60
2020/12/18 09:16:58;;;;;;;34.43;14.30;;;;;;;2.58;81.53;101418.59;126376;1098;23438;-60
2020/12/18 09:19:33;;;;;;;32.50;13.20;;;;;;;2.62;81.68;101413.86;126018;1098;23300;-59
2020/12/18 09:22:05;;;;;;;38.30;14.40;;;;;;;2.68;81.15;101423.30;126281;1098;25035;-59
2020/12/18 09:24:34;;;;;;;33.50;13.05;;;;;;;2.74;81.41;101413.44;126539;1097;26956;-59
2020/12/18 09:27:12;;;;;;;37.73;15.90;;;;;;;2.77;81.42;101415.41;126779;1098;27870;-60
2020/12/18 09:29:42;;;;;;;37.10;15.90;;;;;;;2.83;81.18;101419.34;126396;1098;26321;-56
2020/12/18 09:32:16;;;;;;;35.67;14.13;;;;;;;2.84;81.10;101413.41;126231;1098;23443;-58
2020/12/18 09:34:45;;;;;;;46.37;16.90;;;;;;;2.89;81.59;101414.98;125958;1098;23393;-60
2020/12/18 09:37:17;;;;;;;38.00;14.50;;;;;;;2.91;81.57;101407.89;126182;1098;27522;-58
2020/12/18 09:39:47;;;;;;;40.37;15.37;;;;;;;2.95;81.43;101410.63;126141;1098;26366;-57
2020/12/18 09:42:16;;;;;;;39.45;16.15;;;;;;;3.00;81.39;101415.75;127148;1098;26861;-60
2020/12/18 09:44:46;;;;;;;39.67;15.40;;;;;;;3.04;81.29;101406.25;126209;1098;23339;-56
2020/12/18 09:47:15;;;;;;;43.95;17.40;;;;;;;3.10;81.72;101406.64;126224;1098;26360;-57
2020/12/18 09:49:44;;;;;;;36.87;14.53;;;;;;;3.15;81.67;101403.45;125845;1098;23329;-55
2020/12/18 09:52:14;;;;;;;38.63;15.20;;;;;;;3.17;81.41;101404.63;126268;1098;26408;-57
2020/12/18 09:54:43;;;;;;;42.23;15.28;;;;;;;3.20;81.46;101405.81;125864;1099;23396;-58
2020/12/18 09:57:13;;;;;;;45.10;16.85;;;;;;;3.25;81.45;101399.86;125900;1098;23328;-55
2020/12/18 09:59:42;;;;;;;40.55;16.50;;;;;;;3.31;81.18;101401.01;125975;1098;26011;-56
2020/12/18 10:02:11;;;;;;;38.50;15.47;;;;;;;3.35;81.44;101401.02;125982;1098;24714;-56
2020/12/18 10:04:40;;;;;;;41.73;17.33;;;;;;;3.41;81.15;101407.69;126221;1098;24237;-57
2020/12/18 10:07:11;;;;;;;40.60;16.67;;;;;;;3.46;81.29;101402.52;125959;1098;23585;-57
2020/12/18 10:09:41;;;;;;;39.70;16.80;;;;;;;3.53;81.43;101405.25;126124;1098;23329;-57
2020/12/18 10:12:10;;;;;;;39.73;16.23;;;;;;;3.58;81.46;101395.77;125958;1098;23392;-58
2020/12/18 10:14:40;;;;;;;36.60;14.60;;;;;;;3.61;81.05;101395.73;126125;1098;23326;-56
2020/12/18 10:17:10;;;;;;;38.65;15.05;;;;;;;3.67;81.28;101396.88;126133;1098;27330;-57
2020/12/18 10:19:39;;;;;;;35.45;13.65;;;;;;;3.72;81.29;101392.91;126111;1098;23307;-54
2020/12/18 10:22:10;;;;;;;38.48;15.75;;;;;;;3.77;81.25;101389.70;125951;1098;23382;-54
2020/12/18 10:24:40;;;;;;;35.37;15.37;;;;;;;3.82;81.20;101386.52;126531;1098;23366;-57
2020/12/18 10:27:10;;;;;;;38.33;15.30;;;;;;;3.87;81.08;101391.63;125936;1098;23376;-56
2020/12/18 10:29:39;;;;;;;39.30;16.33;;;;;;;3.92;81.24;101391.19;126196;1098;23383;-57
2020/12/18 10:32:09;;;;;;;42.53;17.40;;;;;;;3.95;80.96;101388.39;126474;1098;24863;-58
2020/12/18 10:34:38;;;;;;;66.30;29.47;;;;;;;3.98;80.83;101384.03;126268;1098;27508;-57
2020/12/18 10:37:08;;;;;;;53.20;23.35;;;;;;;4.04;81.22;101382.40;126968;1098;26557;-57
2020/12/18 10:39:37;;;;;;;43.08;17.30;;;;;;;4.11;81.09;101379.59;126295;1098;26862;-55
2020/12/18 10:42:08;;;;;;;37.43;15.63;;;;;;;4.19;80.96;101383.86;126121;1098;27913;-58
2020/12/18 10:44:38;;;;;;;35.57;14.63;;;;;;;4.26;81.03;101385.78;126050;1098;29924;-57
2020/12/18 10:47:08;;;;;;;31.60;13.43;;;;;;;4.34;80.86;101384.52;126071;1098;23448;-58
2020/12/18 10:49:38;;;;;;;36.27;15.10;;;;;;;4.42;80.84;101378.52;126285;1098;23353;-58
2020/12/18 10:52:08;;;;;;;34.05;12.68;;;;;;;4.48;81.08;101376.09;126710;1098;23371;-58
2020/12/18 10:54:38;;;;;;;33.03;11.93;;;;;;;4.51;80.56;101380.81;126296;1098;25093;-57
2020/12/18 10:57:08;;;;;;;38.00;13.18;;;;;;;4.55;80.49;101373.27;126294;1098;23782;-58
2020/12/18 10:59:38;;;;;;;40.43;12.95;;;;;;;4.62;80.47;101373.17;126219;1098;23464;-58
2020/12/18 11:02:07;;;;;;;32.85;11.05;;;;;;;4.70;80.47;101369.13;126258;1098;23323;-55
2020/12/18 11:04:38;;;;;;;29.90;11.57;;;;;;;4.75;80.58;101358.42;126291;1098;26315;-54
2020/12/18 11:07:08;;;;;;;29.50;10.70;;;;;;;4.83;80.34;101364.65;125975;1098;23373;-57
2020/12/18 11:09:39;;;;;;;28.47;11.65;;;;;;;4.88;80.18;101364.20;126192;1098;26497;-57
2020/12/18 11:12:14;;;;;;;28.60;10.65;;;;;;;4.91;80.34;101357.83;126184;1098;23345;-57
2020/12/18 11:14:44;;;;;;;26.77;10.37;;;;;;;4.96;80.04;101359.36;125838;1098;23445;-56
2020/12/18 11:17:14;;;;;;;29.20;11.38;;;;;;;5.01;80.15;101367.22;125940;1098;23392;-56
2020/12/18 11:19:46;;;;;;;40.05;11.83;;;;;;;5.07;79.92;101362.80;125950;1098;25090;-55
2020/12/18 11:22:17;;;;;;;29.05;11.30;;;;;;;5.12;79.89;101367.85;126673;1098;24015;-54
2020/12/18 11:24:48;;;;;;;34.37;12.00;;;;;;;5.17;80.29;101357.12;125927;1098;23782;-55
2020/12/18 11:27:18;;;;;;;30.30;11.33;;;;;;;5.21;79.70;101366.17;126115;1098;23530;-57
2020/12/18 11:29:48;;;;;;;31.80;10.83;;;;;;;5.25;79.89;101358.59;125951;1098;26527;-54